sensor_id;sensor_type;location;lat;lon;timestamp;P1;durP1;ratioP1;P2;durP2;ratioP2
77581;SDS011;66726;52.388;9.986;2024-03-25T00:02:09;21.23;;;4.27;;
77581;SDS011;66726;52.388;9.986;2024-03-25T00:04:36;8.77;;;3.90;;
77581;SDS011;66726;52.388;9.986;2024-03-25T00:07:02;10.63;;;3.60;;
77581;SDS011;66726;52.388;9.986;2024-03-25T00:09:30;9.90;;;3.43;;
77581;SDS011;66726;52.388;9.986;2024-03-25T00:11:56;8.73;;;3.60;;
77581;SDS011;66726;52.388;9.986;2024-03-25T00:14:23;10.07;;;3.60;;
77581;SDS011;66726;52.388;9.986;2024-03-25T00:16:49;9.53;;;3.57;;
77581;SDS011;66726;52.388;9.986;2024-03-25T00:19:18;6.57;;;3.33;;
77581;SDS011;66726;52.388;9.986;2024-03-25T00:21:44;8.57;;;3.57;;
77581;SDS011;66726;52.388;9.986;2024-03-25T00:24:11;5.43;;;2.90;;
77581;SDS011;66726;52.388;9.986;2024-03-25T00:26:38;6.87;;;3.00;;
77581;SDS011;66726;52.388;9.986;2024-03-25T00:29:05;8.17;;;3.07;;
77581;SDS011;66726;52.388;9.986;2024-03-25T00:31:31;10.50;;;2.97;;
77581;SDS011;66726;52.388;9.986;2024-03-25T00:33:58;10.57;;;3.20;;
77581;SDS011;66726;52.388;9.986;2024-03-25T00:36:26;8.67;;;2.80;;
77581;SDS011;66726;52.388;9.986;2024-03-25T00:38:53;6.17;;;3.03;;
77581;SDS011;66726;52.388;9.986;2024-03-25T00:41:20;8.10;;;3.10;;
77581;SDS011;66726;52.388;9.986;2024-03-25T00:43:47;9.23;;;2.70;;
77581;SDS011;66726;52.388;9.986;2024-03-25T00:46:14;8.57;;;3.40;;
77581;SDS011;66726;52.388;9.986;2024-03-25T00:48:42;7.33;;;3.10;;
77581;SDS011;66726;52.388;9.986;2024-03-25T00:51:08;5.43;;;3.03;;
77581;SDS011;66726;52.388;9.986;2024-03-25T00:53:36;8.63;;;3.70;;
77581;SDS011;66726;52.388;9.986;2024-03-25T00:56:03;8.83;;;3.40;;
77581;SDS011;66726;52.388;9.986;2024-03-25T00:58:30;7.40;;;3.17;;
77581;SDS011;66726;52.388;9.986;2024-03-25T01:00:56;6.23;;;2.97;;
77581;SDS011;66726;52.388;9.986;2024-03-25T01:03:23;6.70;;;2.97;;
77581;SDS011;66726;52.388;9.986;2024-03-25T01:05:50;9.00;;;3.07;;
77581;SDS011;66726;52.388;9.986;2024-03-25T01:08:17;6.77;;;2.80;;
77581;SDS011;66726;52.388;9.986;2024-03-25T01:10:46;8.23;;;3.10;;
77581;SDS011;66726;52.388;9.986;2024-03-25T01:13:13;8.03;;;3.07;;
77581;SDS011;66726;52.388;9.986;2024-03-25T01:15:40;8.57;;;3.10;;
77581;SDS011;66726;52.388;9.986;2024-03-25T01:18:07;8.13;;;3.40;;
77581;SDS011;66726;52.388;9.986;2024-03-25T01:20:33;6.70;;;3.03;;
77581;SDS011;66726;52.388;9.986;2024-03-25T01:23:00;6.33;;;3.10;;
77581;SDS011;66726;52.388;9.986;2024-03-25T01:25:27;7.17;;;3.40;;
77581;SDS011;66726;52.388;9.986;2024-03-25T01:27:55;8.63;;;3.87;;
77581;SDS011;66726;52.388;9.986;2024-03-25T01:30:22;6.03;;;3.30;;
77581;SDS011;66726;52.388;9.986;2024-03-25T01:32:49;10.97;;;4.17;;
77581;SDS011;66726;52.388;9.986;2024-03-25T01:35:15;7.37;;;3.70;;
77581;SDS011;66726;52.388;9.986;2024-03-25T01:37:42;10.20;;;3.83;;
77581;SDS011;66726;52.388;9.986;2024-03-25T01:40:09;11.90;;;4.20;;
77581;SDS011;66726;52.388;9.986;2024-03-25T01:42:36;8.37;;;3.57;;
77581;SDS011;66726;52.388;9.986;2024-03-25T01:45:04;8.53;;;4.03;;
77581;SDS011;66726;52.388;9.986;2024-03-25T01:47:35;10.70;;;4.07;;
77581;SDS011;66726;52.388;9.986;2024-03-25T01:50:03;10.37;;;4.50;;
77581;SDS011;66726;52.388;9.986;2024-03-25T01:52:32;8.77;;;3.97;;
77581;SDS011;66726;52.388;9.986;2024-03-25T01:54:59;9.33;;;3.70;;
77581;SDS011;66726;52.388;9.986;2024-03-25T01:57:28;7.33;;;3.50;;
77581;SDS011;66726;52.388;9.986;2024-03-25T01:59:55;10.40;;;3.57;;
77581;SDS011;66726;52.388;9.986;2024-03-25T02:02:24;13.97;;;3.97;;
77581;SDS011;66726;52.388;9.986;2024-03-25T02:04:50;10.50;;;3.80;;
77581;SDS011;66726;52.388;9.986;2024-03-25T02:07:18;12.03;;;4.27;;
77581;SDS011;66726;52.388;9.986;2024-03-25T02:09:48;10.97;;;4.20;;
77581;SDS011;66726;52.388;9.986;2024-03-25T02:12:17;11.13;;;4.40;;
77581;SDS011;66726;52.388;9.986;2024-03-25T02:14:44;9.97;;;3.93;;
77581;SDS011;66726;52.388;9.986;2024-03-25T02:17:11;10.70;;;4.40;;
77581;SDS011;66726;52.388;9.986;2024-03-25T02:19:39;7.83;;;3.50;;
77581;SDS011;66726;52.388;9.986;2024-03-25T02:22:07;11.77;;;4.47;;
77581;SDS011;66726;52.388;9.986;2024-03-25T02:24:34;11.53;;;4.67;;
77581;SDS011;66726;52.388;9.986;2024-03-25T02:27:03;13.23;;;4.77;;
77581;SDS011;66726;52.388;9.986;2024-03-25T02:29:33;10.13;;;4.13;;
77581;SDS011;66726;52.388;9.986;2024-03-25T02:32:00;9.73;;;4.40;;
77581;SDS011;66726;52.388;9.986;2024-03-25T02:34:26;7.33;;;3.53;;
77581;SDS011;66726;52.388;9.986;2024-03-25T02:36:54;9.53;;;4.03;;
77581;SDS011;66726;52.388;9.986;2024-03-25T02:39:21;12.60;;;4.50;;
77581;SDS011;66726;52.388;9.986;2024-03-25T02:41:50;9.03;;;3.90;;
77581;SDS011;66726;52.388;9.986;2024-03-25T02:44:18;10.57;;;3.60;;
77581;SDS011;66726;52.388;9.986;2024-03-25T02:46:45;10.07;;;3.90;;
77581;SDS011;66726;52.388;9.986;2024-03-25T02:49:12;7.43;;;3.47;;
77581;SDS011;66726;52.388;9.986;2024-03-25T02:51:40;12.03;;;3.80;;
77581;SDS011;66726;52.388;9.986;2024-03-25T02:54:06;7.67;;;4.20;;
77581;SDS011;66726;52.388;9.986;2024-03-25T02:56:34;10.60;;;3.80;;
77581;SDS011;66726;52.388;9.986;2024-03-25T02:59:00;8.37;;;3.80;;
77581;SDS011;66726;52.388;9.986;2024-03-25T03:01:29;10.80;;;4.27;;
77581;SDS011;66726;52.388;9.986;2024-03-25T03:03:55;9.97;;;4.57;;
77581;SDS011;66726;52.388;9.986;2024-03-25T03:06:22;9.97;;;4.23;;
77581;SDS011;66726;52.388;9.986;2024-03-25T03:08:48;13.03;;;4.50;;
77581;SDS011;66726;52.388;9.986;2024-03-25T03:11:15;9.77;;;4.20;;
77581;SDS011;66726;52.388;9.986;2024-03-25T03:13:42;13.07;;;4.13;;
77581;SDS011;66726;52.388;9.986;2024-03-25T03:16:09;7.77;;;3.40;;
77581;SDS011;66726;52.388;9.986;2024-03-25T03:18:37;12.80;;;3.97;;
77581;SDS011;66726;52.388;9.986;2024-03-25T03:21:04;12.50;;;3.67;;
77581;SDS011;66726;52.388;9.986;2024-03-25T03:23:30;8.97;;;3.70;;
77581;SDS011;66726;52.388;9.986;2024-03-25T03:25:58;7.43;;;3.40;;
77581;SDS011;66726;52.388;9.986;2024-03-25T03:28:25;8.77;;;3.67;;
77581;SDS011;66726;52.388;9.986;2024-03-25T03:30:53;10.33;;;4.03;;
77581;SDS011;66726;52.388;9.986;2024-03-25T03:33:19;9.77;;;3.67;;
77581;SDS011;66726;52.388;9.986;2024-03-25T03:35:48;8.43;;;3.40;;
77581;SDS011;66726;52.388;9.986;2024-03-25T03:38:15;8.73;;;4.00;;
77581;SDS011;66726;52.388;9.986;2024-03-25T03:40:42;8.23;;;3.23;;
77581;SDS011;66726;52.388;9.986;2024-03-25T03:43:09;8.53;;;3.47;;
77581;SDS011;66726;52.388;9.986;2024-03-25T03:45:37;6.30;;;3.30;;
77581;SDS011;66726;52.388;9.986;2024-03-25T03:48:03;9.93;;;4.40;;
77581;SDS011;66726;52.388;9.986;2024-03-25T03:50:31;9.50;;;3.70;;
77581;SDS011;66726;52.388;9.986;2024-03-25T03:52:59;8.63;;;3.60;;
77581;SDS011;66726;52.388;9.986;2024-03-25T03:55:26;7.00;;;3.80;;
77581;SDS011;66726;52.388;9.986;2024-03-25T03:57:52;9.80;;;4.17;;
77581;SDS011;66726;52.388;9.986;2024-03-25T04:00:19;7.87;;;3.57;;
77581;SDS011;66726;52.388;9.986;2024-03-25T04:02:45;9.73;;;4.27;;
77581;SDS011;66726;52.388;9.986;2024-03-25T04:05:13;10.10;;;3.90;;
77581;SDS011;66726;52.388;9.986;2024-03-25T04:07:39;9.50;;;3.73;;
77581;SDS011;66726;52.388;9.986;2024-03-25T04:10:08;7.83;;;4.13;;
77581;SDS011;66726;52.388;9.986;2024-03-25T04:12:34;7.97;;;3.47;;
77581;SDS011;66726;52.388;9.986;2024-03-25T04:15:02;7.13;;;3.50;;
77581;SDS011;66726;52.388;9.986;2024-03-25T04:17:29;11.20;;;3.50;;
77581;SDS011;66726;52.388;9.986;2024-03-25T04:19:58;8.53;;;3.63;;
77581;SDS011;66726;52.388;9.986;2024-03-25T04:22:25;10.17;;;3.60;;
77581;SDS011;66726;52.388;9.986;2024-03-25T04:24:52;9.60;;;3.53;;
77581;SDS011;66726;52.388;9.986;2024-03-25T04:27:20;11.50;;;4.17;;
77581;SDS011;66726;52.388;9.986;2024-03-25T04:29:49;7.53;;;3.80;;
77581;SDS011;66726;52.388;9.986;2024-03-25T04:32:16;7.63;;;3.83;;
77581;SDS011;66726;52.388;9.986;2024-03-25T04:34:43;6.17;;;3.80;;
77581;SDS011;66726;52.388;9.986;2024-03-25T04:37:09;9.53;;;4.17;;
77581;SDS011;66726;52.388;9.986;2024-03-25T04:39:36;10.13;;;4.00;;
77581;SDS011;66726;52.388;9.986;2024-03-25T04:42:02;9.63;;;3.80;;
77581;SDS011;66726;52.388;9.986;2024-03-25T04:44:30;11.13;;;3.77;;
77581;SDS011;66726;52.388;9.986;2024-03-25T04:46:56;12.80;;;4.27;;
77581;SDS011;66726;52.388;9.986;2024-03-25T04:49:22;9.33;;;3.70;;
77581;SDS011;66726;52.388;9.986;2024-03-25T04:51:49;8.40;;;3.60;;
77581;SDS011;66726;52.388;9.986;2024-03-25T04:54:15;8.17;;;3.73;;
77581;SDS011;66726;52.388;9.986;2024-03-25T04:56:42;9.60;;;3.70;;
77581;SDS011;66726;52.388;9.986;2024-03-25T04:59:08;15.67;;;4.30;;
77581;SDS011;66726;52.388;9.986;2024-03-25T05:01:35;10.70;;;4.03;;
77581;SDS011;66726;52.388;9.986;2024-03-25T05:04:02;14.23;;;3.67;;
77581;SDS011;66726;52.388;9.986;2024-03-25T05:06:28;9.07;;;3.37;;
77581;SDS011;66726;52.388;9.986;2024-03-25T05:08:55;10.83;;;3.40;;
77581;SDS011;66726;52.388;9.986;2024-03-25T05:11:21;10.57;;;3.93;;
77581;SDS011;66726;52.388;9.986;2024-03-25T05:13:48;7.17;;;3.33;;
77581;SDS011;66726;52.388;9.986;2024-03-25T05:16:14;12.23;;;4.10;;
77581;SDS011;66726;52.388;9.986;2024-03-25T05:18:41;8.77;;;4.10;;
77581;SDS011;66726;52.388;9.986;2024-03-25T05:21:08;13.60;;;4.73;;
77581;SDS011;66726;52.388;9.986;2024-03-25T05:23:34;14.47;;;4.63;;
77581;SDS011;66726;52.388;9.986;2024-03-25T05:26:00;12.20;;;4.20;;
77581;SDS011;66726;52.388;9.986;2024-03-25T05:28:27;15.50;;;4.53;;
77581;SDS011;66726;52.388;9.986;2024-03-25T05:30:53;13.10;;;4.33;;
77581;SDS011;66726;52.388;9.986;2024-03-25T05:33:19;10.77;;;3.90;;
77581;SDS011;66726;52.388;9.986;2024-03-25T05:35:47;13.60;;;4.50;;
77581;SDS011;66726;52.388;9.986;2024-03-25T05:38:13;11.80;;;3.80;;
77581;SDS011;66726;52.388;9.986;2024-03-25T05:40:39;13.10;;;4.37;;
77581;SDS011;66726;52.388;9.986;2024-03-25T05:43:06;18.63;;;4.30;;
77581;SDS011;66726;52.388;9.986;2024-03-25T05:45:32;10.80;;;4.40;;
77581;SDS011;66726;52.388;9.986;2024-03-25T05:47:58;12.70;;;4.63;;
77581;SDS011;66726;52.388;9.986;2024-03-25T05:50:25;15.60;;;4.80;;
77581;SDS011;66726;52.388;9.986;2024-03-25T05:52:52;14.60;;;5.57;;
77581;SDS011;66726;52.388;9.986;2024-03-25T05:55:18;17.13;;;5.37;;
77581;SDS011;66726;52.388;9.986;2024-03-25T05:57:45;12.83;;;5.20;;
77581;SDS011;66726;52.388;9.986;2024-03-25T06:00:12;14.87;;;5.13;;
77581;SDS011;66726;52.388;9.986;2024-03-25T06:02:39;20.67;;;5.53;;
77581;SDS011;66726;52.388;9.986;2024-03-25T06:05:05;14.20;;;4.53;;
77581;SDS011;66726;52.388;9.986;2024-03-25T06:07:32;15.80;;;5.33;;
77581;SDS011;66726;52.388;9.986;2024-03-25T06:09:59;10.93;;;4.67;;
77581;SDS011;66726;52.388;9.986;2024-03-25T06:12:26;16.70;;;5.37;;
77581;SDS011;66726;52.388;9.986;2024-03-25T06:14:52;17.87;;;5.90;;
77581;SDS011;66726;52.388;9.986;2024-03-25T06:17:18;18.33;;;5.50;;
77581;SDS011;66726;52.388;9.986;2024-03-25T06:19:44;17.70;;;4.80;;
77581;SDS011;66726;52.388;9.986;2024-03-25T06:22:11;13.27;;;5.30;;
77581;SDS011;66726;52.388;9.986;2024-03-25T06:24:37;14.80;;;4.50;;
77581;SDS011;66726;52.388;9.986;2024-03-25T06:27:05;13.50;;;4.67;;
77581;SDS011;66726;52.388;9.986;2024-03-25T06:29:31;18.40;;;4.83;;
77581;SDS011;66726;52.388;9.986;2024-03-25T06:31:57;17.53;;;4.70;;
77581;SDS011;66726;52.388;9.986;2024-03-25T06:34:42;13.03;;;5.10;;
77581;SDS011;66726;52.388;9.986;2024-03-25T06:37:08;14.93;;;5.37;;
77581;SDS011;66726;52.388;9.986;2024-03-25T06:39:35;10.80;;;3.90;;
77581;SDS011;66726;52.388;9.986;2024-03-25T06:42:01;16.00;;;4.33;;
77581;SDS011;66726;52.388;9.986;2024-03-25T06:44:29;19.67;;;3.83;;
77581;SDS011;66726;52.388;9.986;2024-03-25T06:46:55;16.50;;;4.53;;
77581;SDS011;66726;52.388;9.986;2024-03-25T06:49:21;17.73;;;5.03;;
77581;SDS011;66726;52.388;9.986;2024-03-25T06:51:48;20.87;;;4.80;;
77581;SDS011;66726;52.388;9.986;2024-03-25T06:54:14;12.77;;;3.90;;
77581;SDS011;66726;52.388;9.986;2024-03-25T06:56:40;13.47;;;4.27;;
77581;SDS011;66726;52.388;9.986;2024-03-25T06:59:07;15.60;;;4.23;;
77581;SDS011;66726;52.388;9.986;2024-03-25T07:01:34;13.13;;;4.23;;
77581;SDS011;66726;52.388;9.986;2024-03-25T07:04:01;16.77;;;4.70;;
77581;SDS011;66726;52.388;9.986;2024-03-25T07:06:27;16.70;;;4.10;;
77581;SDS011;66726;52.388;9.986;2024-03-25T07:08:53;19.40;;;4.80;;
77581;SDS011;66726;52.388;9.986;2024-03-25T07:11:19;15.27;;;4.50;;
77581;SDS011;66726;52.388;9.986;2024-03-25T07:13:51;14.83;;;3.97;;
77581;SDS011;66726;52.388;9.986;2024-03-25T07:16:18;16.87;;;4.70;;
77581;SDS011;66726;52.388;9.986;2024-03-25T07:18:48;13.97;;;5.20;;
77581;SDS011;66726;52.388;9.986;2024-03-25T07:21:14;15.03;;;4.73;;
77581;SDS011;66726;52.388;9.986;2024-03-25T07:23:41;15.00;;;4.60;;
77581;SDS011;66726;52.388;9.986;2024-03-25T07:26:07;13.07;;;4.53;;
77581;SDS011;66726;52.388;9.986;2024-03-25T07:28:33;14.93;;;4.90;;
77581;SDS011;66726;52.388;9.986;2024-03-25T07:30:59;10.27;;;4.67;;
77581;SDS011;66726;52.388;9.986;2024-03-25T07:33:26;18.20;;;5.93;;
77581;SDS011;66726;52.388;9.986;2024-03-25T07:35:53;15.77;;;5.07;;
77581;SDS011;66726;52.388;9.986;2024-03-25T07:38:19;13.93;;;4.60;;
77581;SDS011;66726;52.388;9.986;2024-03-25T07:40:46;17.97;;;4.70;;
77581;SDS011;66726;52.388;9.986;2024-03-25T07:43:12;15.83;;;4.77;;
77581;SDS011;66726;52.388;9.986;2024-03-25T07:45:38;13.37;;;4.50;;
77581;SDS011;66726;52.388;9.986;2024-03-25T07:48:05;19.47;;;5.00;;
77581;SDS011;66726;52.388;9.986;2024-03-25T07:50:32;18.77;;;5.70;;
77581;SDS011;66726;52.388;9.986;2024-03-25T07:53:00;14.70;;;4.83;;
77581;SDS011;66726;52.388;9.986;2024-03-25T07:55:26;20.27;;;5.43;;
77581;SDS011;66726;52.388;9.986;2024-03-25T07:57:52;20.30;;;6.00;;
77581;SDS011;66726;52.388;9.986;2024-03-25T08:00:18;15.43;;;5.63;;
77581;SDS011;66726;52.388;9.986;2024-03-25T08:02:45;19.77;;;6.17;;
77581;SDS011;66726;52.388;9.986;2024-03-25T08:05:11;17.23;;;5.57;;
77581;SDS011;66726;52.388;9.986;2024-03-25T08:07:37;16.63;;;5.90;;
77581;SDS011;66726;52.388;9.986;2024-03-25T08:10:06;14.97;;;5.53;;
77581;SDS011;66726;52.388;9.986;2024-03-25T08:12:33;19.80;;;6.07;;
77581;SDS011;66726;52.388;9.986;2024-03-25T08:14:59;15.60;;;5.40;;
77581;SDS011;66726;52.388;9.986;2024-03-25T08:17:26;20.10;;;5.43;;
77581;SDS011;66726;52.388;9.986;2024-03-25T08:19:52;15.77;;;4.90;;
77581;SDS011;66726;52.388;9.986;2024-03-25T08:22:18;15.30;;;4.97;;
77581;SDS011;66726;52.388;9.986;2024-03-25T08:24:45;10.50;;;4.37;;
77581;SDS011;66726;52.388;9.986;2024-03-25T08:27:12;16.70;;;4.73;;
77581;SDS011;66726;52.388;9.986;2024-03-25T08:29:38;16.40;;;4.13;;
77581;SDS011;66726;52.388;9.986;2024-03-25T08:32:05;25.17;;;4.43;;
77581;SDS011;66726;52.388;9.986;2024-03-25T08:34:32;13.47;;;4.20;;
77581;SDS011;66726;52.388;9.986;2024-03-25T08:36:58;15.23;;;4.20;;
77581;SDS011;66726;52.388;9.986;2024-03-25T08:39:24;19.03;;;4.50;;
77581;SDS011;66726;52.388;9.986;2024-03-25T08:41:51;15.97;;;4.13;;
77581;SDS011;66726;52.388;9.986;2024-03-25T08:44:18;18.53;;;4.20;;
77581;SDS011;66726;52.388;9.986;2024-03-25T08:46:45;14.43;;;4.57;;
77581;SDS011;66726;52.388;9.986;2024-03-25T08:49:11;15.63;;;4.20;;
77581;SDS011;66726;52.388;9.986;2024-03-25T08:51:37;13.63;;;5.10;;
77581;SDS011;66726;52.388;9.986;2024-03-25T08:54:03;15.90;;;5.07;;
77581;SDS011;66726;52.388;9.986;2024-03-25T08:56:30;15.83;;;4.57;;
77581;SDS011;66726;52.388;9.986;2024-03-25T08:58:56;12.90;;;4.03;;
77581;SDS011;66726;52.388;9.986;2024-03-25T09:01:24;12.37;;;3.80;;
77581;SDS011;66726;52.388;9.986;2024-03-25T09:03:50;14.33;;;4.23;;
77581;SDS011;66726;52.388;9.986;2024-03-25T09:06:16;12.07;;;3.80;;
77581;SDS011;66726;52.388;9.986;2024-03-25T09:08:43;15.60;;;4.37;;
77581;SDS011;66726;52.388;9.986;2024-03-25T09:11:24;13.87;;;5.23;;
77581;SDS011;66726;52.388;9.986;2024-03-25T09:13:50;15.30;;;4.67;;
77581;SDS011;66726;52.388;9.986;2024-03-25T09:16:16;13.93;;;4.10;;
77581;SDS011;66726;52.388;9.986;2024-03-25T09:18:44;11.47;;;3.83;;
77581;SDS011;66726;52.388;9.986;2024-03-25T09:21:11;13.40;;;4.37;;
77581;SDS011;66726;52.388;9.986;2024-03-25T09:23:37;19.33;;;3.87;;
77581;SDS011;66726;52.388;9.986;2024-03-25T09:26:03;14.57;;;5.73;;
77581;SDS011;66726;52.388;9.986;2024-03-25T09:28:29;13.47;;;3.53;;
77581;SDS011;66726;52.388;9.986;2024-03-25T09:30:56;11.93;;;4.07;;
77581;SDS011;66726;52.388;9.986;2024-03-25T09:33:22;13.37;;;4.53;;
77581;SDS011;66726;52.388;9.986;2024-03-25T09:35:50;11.93;;;3.13;;
77581;SDS011;66726;52.388;9.986;2024-03-25T09:38:16;12.10;;;3.40;;
77581;SDS011;66726;52.388;9.986;2024-03-25T09:40:43;9.10;;;3.50;;
77581;SDS011;66726;52.388;9.986;2024-03-25T09:43:11;10.03;;;3.10;;
77581;SDS011;66726;52.388;9.986;2024-03-25T09:45:46;8.63;;;2.50;;
77581;SDS011;66726;52.388;9.986;2024-03-25T09:48:15;7.70;;;3.30;;
77581;SDS011;66726;52.388;9.986;2024-03-25T09:50:44;10.50;;;3.27;;
77581;SDS011;66726;52.388;9.986;2024-03-25T09:53:13;11.33;;;3.13;;
77581;SDS011;66726;52.388;9.986;2024-03-25T09:55:39;7.60;;;2.73;;
77581;SDS011;66726;52.388;9.986;2024-03-25T09:58:06;9.43;;;2.83;;
77581;SDS011;66726;52.388;9.986;2024-03-25T10:00:33;6.93;;;2.90;;
77581;SDS011;66726;52.388;9.986;2024-03-25T10:02:59;10.83;;;3.20;;
77581;SDS011;66726;52.388;9.986;2024-03-25T10:05:25;6.87;;;2.57;;
77581;SDS011;66726;52.388;9.986;2024-03-25T10:07:52;7.40;;;2.70;;
77581;SDS011;66726;52.388;9.986;2024-03-25T10:10:20;15.77;;;2.83;;
77581;SDS011;66726;52.388;9.986;2024-03-25T10:12:46;7.30;;;1.87;;
77581;SDS011;66726;52.388;9.986;2024-03-25T10:15:15;8.37;;;2.10;;
77581;SDS011;66726;52.388;9.986;2024-03-25T10:17:42;8.97;;;2.47;;
77581;SDS011;66726;52.388;9.986;2024-03-25T10:20:13;6.63;;;2.47;;
77581;SDS011;66726;52.388;9.986;2024-03-25T10:22:42;6.13;;;2.30;;
77581;SDS011;66726;52.388;9.986;2024-03-25T10:25:20;6.73;;;2.53;;
77581;SDS011;66726;52.388;9.986;2024-03-25T10:27:54;7.53;;;2.33;;
77581;SDS011;66726;52.388;9.986;2024-03-25T10:30:21;5.73;;;2.40;;
77581;SDS011;66726;52.388;9.986;2024-03-25T10:32:58;8.67;;;2.33;;
77581;SDS011;66726;52.388;9.986;2024-03-25T10:35:29;4.37;;;1.90;;
77581;SDS011;66726;52.388;9.986;2024-03-25T10:37:58;7.43;;;1.93;;
77581;SDS011;66726;52.388;9.986;2024-03-25T10:40:28;7.73;;;2.70;;
77581;SDS011;66726;52.388;9.986;2024-03-25T10:42:58;12.60;;;5.57;;
77581;SDS011;66726;52.388;9.986;2024-03-25T10:45:32;9.40;;;3.20;;
77581;SDS011;66726;52.388;9.986;2024-03-25T10:48:03;9.13;;;2.50;;
77581;SDS011;66726;52.388;9.986;2024-03-25T10:50:37;9.70;;;2.57;;
77581;SDS011;66726;52.388;9.986;2024-03-25T10:53:06;10.43;;;2.33;;
77581;SDS011;66726;52.388;9.986;2024-03-25T10:55:37;10.37;;;2.40;;
77581;SDS011;66726;52.388;9.986;2024-03-25T10:58:04;9.10;;;2.40;;
77581;SDS011;66726;52.388;9.986;2024-03-25T11:00:31;7.73;;;2.27;;
77581;SDS011;66726;52.388;9.986;2024-03-25T11:02:59;7.57;;;2.37;;
77581;SDS011;66726;52.388;9.986;2024-03-25T11:05:26;8.97;;;2.30;;
77581;SDS011;66726;52.388;9.986;2024-03-25T11:07:53;8.80;;;2.40;;
77581;SDS011;66726;52.388;9.986;2024-03-25T11:10:28;9.60;;;2.33;;
77581;SDS011;66726;52.388;9.986;2024-03-25T11:12:56;7.60;;;2.63;;
77581;SDS011;66726;52.388;9.986;2024-03-25T11:15:23;9.17;;;2.77;;
77581;SDS011;66726;52.388;9.986;2024-03-25T11:17:49;7.93;;;2.70;;
77581;SDS011;66726;52.388;9.986;2024-03-25T11:20:16;9.03;;;3.07;;
77581;SDS011;66726;52.388;9.986;2024-03-25T11:22:49;7.00;;;2.30;;
77581;SDS011;66726;52.388;9.986;2024-03-25T11:25:17;7.27;;;2.53;;
77581;SDS011;66726;52.388;9.986;2024-03-25T11:27:45;6.13;;;2.23;;
77581;SDS011;66726;52.388;9.986;2024-03-25T11:30:14;8.97;;;2.60;;
77581;SDS011;66726;52.388;9.986;2024-03-25T11:32:44;8.47;;;3.00;;
77581;SDS011;66726;52.388;9.986;2024-03-25T11:35:12;10.60;;;2.80;;
77581;SDS011;66726;52.388;9.986;2024-03-25T11:37:39;8.20;;;2.77;;
77581;SDS011;66726;52.388;9.986;2024-03-25T11:40:07;13.27;;;3.30;;
77581;SDS011;66726;52.388;9.986;2024-03-25T11:42:34;7.60;;;2.57;;
77581;SDS011;66726;52.388;9.986;2024-03-25T11:45:03;10.87;;;2.53;;
77581;SDS011;66726;52.388;9.986;2024-03-25T11:47:32;6.77;;;2.27;;
77581;SDS011;66726;52.388;9.986;2024-03-25T11:49:59;6.90;;;2.50;;
77581;SDS011;66726;52.388;9.986;2024-03-25T11:52:29;8.97;;;2.77;;
77581;SDS011;66726;52.388;9.986;2024-03-25T11:54:57;7.30;;;2.30;;
77581;SDS011;66726;52.388;9.986;2024-03-25T11:57:23;11.07;;;2.73;;
77581;SDS011;66726;52.388;9.986;2024-03-25T11:59:50;8.53;;;3.00;;
77581;SDS011;66726;52.388;9.986;2024-03-25T12:02:17;10.60;;;2.63;;
77581;SDS011;66726;52.388;9.986;2024-03-25T12:04:45;7.37;;;2.70;;
77581;SDS011;66726;52.388;9.986;2024-03-25T12:07:13;8.60;;;2.87;;
77581;SDS011;66726;52.388;9.986;2024-03-25T12:09:40;10.17;;;3.07;;
77581;SDS011;66726;52.388;9.986;2024-03-25T12:12:25;5.93;;;2.50;;
77581;SDS011;66726;52.388;9.986;2024-03-25T12:14:52;10.27;;;2.60;;
77581;SDS011;66726;52.388;9.986;2024-03-25T12:17:19;12.20;;;2.97;;
77581;SDS011;66726;52.388;9.986;2024-03-25T12:19:59;10.57;;;2.60;;
77581;SDS011;66726;52.388;9.986;2024-03-25T12:22:29;7.07;;;1.97;;
77581;SDS011;66726;52.388;9.986;2024-03-25T12:24:57;8.93;;;2.80;;
77581;SDS011;66726;52.388;9.986;2024-03-25T12:27:25;10.60;;;2.70;;
77581;SDS011;66726;52.388;9.986;2024-03-25T12:29:58;6.93;;;2.53;;
77581;SDS011;66726;52.388;9.986;2024-03-25T12:32:36;11.87;;;3.23;;
77581;SDS011;66726;52.388;9.986;2024-03-25T12:35:05;8.53;;;2.33;;
77581;SDS011;66726;52.388;9.986;2024-03-25T12:37:33;10.47;;;2.70;;
77581;SDS011;66726;52.388;9.986;2024-03-25T12:40:01;7.87;;;2.93;;
77581;SDS011;66726;52.388;9.986;2024-03-25T12:42:28;9.97;;;3.43;;
77581;SDS011;66726;52.388;9.986;2024-03-25T12:44:55;13.27;;;2.73;;
77581;SDS011;66726;52.388;9.986;2024-03-25T12:47:22;7.23;;;2.67;;
77581;SDS011;66726;52.388;9.986;2024-03-25T12:49:48;7.80;;;2.93;;
77581;SDS011;66726;52.388;9.986;2024-03-25T12:52:16;8.50;;;2.90;;
77581;SDS011;66726;52.388;9.986;2024-03-25T12:54:42;8.23;;;2.63;;
77581;SDS011;66726;52.388;9.986;2024-03-25T12:57:09;10.80;;;2.70;;
77581;SDS011;66726;52.388;9.986;2024-03-25T12:59:36;6.47;;;2.57;;
77581;SDS011;66726;52.388;9.986;2024-03-25T13:02:03;7.30;;;2.47;;
77581;SDS011;66726;52.388;9.986;2024-03-25T13:04:29;6.17;;;2.20;;
77581;SDS011;66726;52.388;9.986;2024-03-25T13:06:56;7.10;;;2.17;;
77581;SDS011;66726;52.388;9.986;2024-03-25T13:09:23;7.90;;;2.93;;
77581;SDS011;66726;52.388;9.986;2024-03-25T13:11:50;10.00;;;2.63;;
77581;SDS011;66726;52.388;9.986;2024-03-25T13:14:16;9.90;;;2.60;;
77581;SDS011;66726;52.388;9.986;2024-03-25T13:16:42;6.40;;;2.00;;
77581;SDS011;66726;52.388;9.986;2024-03-25T13:19:09;8.50;;;2.17;;
77581;SDS011;66726;52.388;9.986;2024-03-25T13:21:35;6.40;;;2.10;;
77581;SDS011;66726;52.388;9.986;2024-03-25T13:24:01;6.27;;;2.10;;
77581;SDS011;66726;52.388;9.986;2024-03-25T13:26:29;7.07;;;1.90;;
77581;SDS011;66726;52.388;9.986;2024-03-25T13:28:55;7.20;;;2.20;;
77581;SDS011;66726;52.388;9.986;2024-03-25T13:31:22;9.20;;;1.97;;
77581;SDS011;66726;52.388;9.986;2024-03-25T13:33:49;5.87;;;2.00;;
77581;SDS011;66726;52.388;9.986;2024-03-25T13:36:15;5.67;;;1.73;;
77581;SDS011;66726;52.388;9.986;2024-03-25T13:38:42;7.83;;;2.20;;
77581;SDS011;66726;52.388;9.986;2024-03-25T13:41:08;5.90;;;1.83;;
77581;SDS011;66726;52.388;9.986;2024-03-25T13:43:39;7.37;;;2.10;;
77581;SDS011;66726;52.388;9.986;2024-03-25T13:46:08;5.60;;;1.90;;
77581;SDS011;66726;52.388;9.986;2024-03-25T13:48:35;7.67;;;2.60;;
77581;SDS011;66726;52.388;9.986;2024-03-25T13:51:01;8.70;;;1.70;;
77581;SDS011;66726;52.388;9.986;2024-03-25T13:53:28;8.17;;;1.83;;
77581;SDS011;66726;52.388;9.986;2024-03-25T13:55:54;4.23;;;1.70;;
77581;SDS011;66726;52.388;9.986;2024-03-25T13:58:21;3.73;;;1.63;;
77581;SDS011;66726;52.388;9.986;2024-03-25T14:00:49;7.87;;;2.07;;
77581;SDS011;66726;52.388;9.986;2024-03-25T14:03:15;7.83;;;2.07;;
77581;SDS011;66726;52.388;9.986;2024-03-25T14:05:41;6.67;;;2.23;;
77581;SDS011;66726;52.388;9.986;2024-03-25T14:08:08;6.60;;;1.93;;
77581;SDS011;66726;52.388;9.986;2024-03-25T14:10:35;6.90;;;2.10;;
77581;SDS011;66726;52.388;9.986;2024-03-25T14:13:01;4.67;;;1.70;;
77581;SDS011;66726;52.388;9.986;2024-03-25T14:15:28;5.13;;;1.83;;
77581;SDS011;66726;52.388;9.986;2024-03-25T14:17:56;6.13;;;2.00;;
77581;SDS011;66726;52.388;9.986;2024-03-25T14:20:22;6.10;;;1.90;;
77581;SDS011;66726;52.388;9.986;2024-03-25T14:22:48;5.53;;;2.10;;
77581;SDS011;66726;52.388;9.986;2024-03-25T14:25:15;5.60;;;2.03;;
77581;SDS011;66726;52.388;9.986;2024-03-25T14:27:41;6.47;;;2.27;;
77581;SDS011;66726;52.388;9.986;2024-03-25T14:30:08;6.13;;;1.93;;
77581;SDS011;66726;52.388;9.986;2024-03-25T14:32:35;5.47;;;2.10;;
77581;SDS011;66726;52.388;9.986;2024-03-25T14:35:04;4.83;;;1.77;;
77581;SDS011;66726;52.388;9.986;2024-03-25T14:37:31;4.63;;;1.80;;
77581;SDS011;66726;52.388;9.986;2024-03-25T14:39:58;7.00;;;1.97;;
77581;SDS011;66726;52.388;9.986;2024-03-25T14:42:24;5.17;;;2.30;;